| time (UTC) | temp F | wind direction | speed MPH | gust MPH | rain 1hr in | rain 24hr in | rain mn in | humidity % | barometer mb |
| 20260510203008 | 61 | 150 | 3.0 | 10.0 | 0.00 | 0.00 | 0.00 | 46 | 1008.3 |
| 20260510195707 | 66 | 325 | 4.0 | 13.0 | 0.00 | 0.00 | 0.00 | 37 | 1008.0 |
| 20260510194647 | 70 | 237 | 1.0 | 6.0 | 0.00 | 0.00 | 0.00 | 24 | 1007.5 |
| 20260510193627 | 72 | 276 | 1.0 | 11.0 | 0.00 | 0.00 | 0.00 | 21 | 1007.3 |
| 20260510192612 | 73 | 162 | 4.0 | 11.0 | 0.00 | 0.00 | 0.00 | 20 | 1007.1 |
| 20260510190531 | 74 | 160 | 4.0 | 11.0 | 0.00 | 0.00 | 0.00 | 21 | 1007.3 |
| 20260510185554 | 75 | 226 | 1.0 | 7.0 | 0.00 | 0.00 | 0.00 | 20 | 1007.4 |
| 20260510184520 | 76 | 236 | 2.0 | 7.0 | 0.00 | 0.00 | 0.00 | 20 | 1007.6 |
| 20260510183521 | 73 | 162 | 2.0 | 7.0 | 0.00 | 0.00 | 0.00 | 21 | 1007.5 |
| 20260510181417 | 74 | 207 | 2.0 | 9.0 | 0.00 | 0.00 | 0.00 | 22 | 1007.7 |
| 20260510180414 | 74 | 238 | 3.0 | 7.0 | 0.00 | 0.00 | 0.00 | 23 | 1007.7 |
| 20260510175401 | 73 | 166 | 3.0 | 8.0 | 0.00 | 0.00 | 0.00 | 22 | 1007.9 |
| 20260510174418 | 73 | 230 | 2.0 | 8.0 | 0.00 | 0.00 | 0.00 | 23 | 1008.0 |
| 20260510172252 | 71 | 186 | 2.0 | 8.0 | 0.00 | 0.00 | 0.00 | 25 | 1008.1 |
| 20260510171316 | 71 | 163 | 2.0 | 7.0 | 0.00 | 0.00 | 0.00 | 25 | 1008.2 |
| 20260510170246 | 70 | 104 | 2.0 | 7.0 | 0.00 | 0.00 | 0.00 | 26 | 1008.1 |
| 20260510165236 | 70 | 94 | 1.0 | 7.0 | 0.00 | 0.00 | 0.00 | 27 | 1008.0 |
| 20260510163109 | 67 | 307 | 1.0 | 7.0 | 0.00 | 0.00 | 0.00 | 29 | 1008.0 |
| 20260510162130 | 66 | 295 | 1.0 | 6.0 | 0.00 | 0.00 | 0.00 | 30 | 1008.0 |
| 20260510161144 | 65 | 298 | 1.0 | 6.0 | 0.00 | 0.00 | 0.00 | 30 | 1008.0 |
| 20260510160122 | 65 | 282 | 1.0 | 6.0 | 0.00 | 0.00 | 0.00 | 31 | 1008.1 |
| 20260510154002 | 65 | 65 | 1.0 | 6.0 | 0.00 | 0.00 | 0.00 | 32 | 1008.0 |
| 20260510153014 | 63 | 283 | 2.0 | 8.0 | 0.00 | 0.00 | 0.00 | 32 | 1008.0 |
| 20260510150818 | 62 | 327 | 2.0 | 7.0 | 0.00 | 0.00 | 0.00 | 30 | 1007.7 |
| 20260510145746 | 62 | 277 | 1.0 | 4.0 | 0.00 | 0.00 | 0.00 | 29 | 1007.5 |
| 20260510144711 | 62 | 290 | 1.0 | 4.0 | 0.00 | 0.00 | 0.00 | 29 | 1007.5 |
| 20260510142552 | 63 | 328 | 0.0 | 2.0 | 0.00 | 0.00 | 0.00 | 27 | 1007.3 |
| 20260510141535 | 63 | 72 | 0.0 | 2.0 | 0.00 | 0.00 | 0.00 | 28 | 1007.2 |
| 20260510140534 | 63 | 278 | 0.0 | 1.0 | 0.00 | 0.00 | 0.00 | 29 | 1006.9 |
| 20260510135501 | 61 | 295 | 0.0 | 0.0 | 0.00 | 0.00 | 0.00 | 30 | 1006.8 |
| 20260510134447 | 60 | 49 | 0.0 | 0.0 | 0.00 | 0.00 | 0.00 | 32 | 1006.5 |
| 20260510133454 | 57 | 49 | 0.0 | 0.0 | 0.00 | 0.00 | 0.00 | 34 | 1006.4 |
| 20260510132453 | 57 | 49 | 0.0 | 0.0 | 0.00 | 0.00 | 0.00 | 35 | 1006.3 |
| 20260510131447 | 56 | 59 | 0.0 | 2.0 | 0.00 | 0.00 | 0.00 | 34 | 1005.8 |
| 20260510113253 | 60 | 117 | 2.0 | 7.0 | 0.00 | 0.00 | 0.00 | 30 | 1003.1 |
| 20260510112259 | 60 | 125 | 2.0 | 7.0 | 0.00 | 0.00 | 0.00 | 28 | 1003.0 |
| 20260510110153 | 59 | 146 | 2.0 | 6.0 | 0.00 | 0.00 | 0.00 | 28 | 1002.6 |
| 20260510105138 | 59 | 145 | 2.0 | 6.0 | 0.00 | 0.00 | 0.00 | 28 | 1002.6 |
| 20260510104129 | 60 | 165 | 0.0 | 2.0 | 0.00 | 0.00 | 0.00 | 27 | 1002.5 |
| 20260510103113 | 60 | 161 | 0.0 | 2.0 | 0.00 | 0.00 | 0.00 | 26 | 1002.4 |
| 20260510102129 | 61 | 150 | 1.0 | 2.0 | 0.00 | 0.00 | 0.00 | 26 | 1002.2 |
| 20260510101111 | 61 | 121 | 0.0 | 2.0 | 0.00 | 0.00 | 0.00 | 26 | 1002.2 |
| 20260510094901 | 59 | 193 | 0.0 | 0.0 | 0.00 | 0.00 | 0.00 | 27 | 1001.9 |
| 20260510093918 | 59 | 196 | 0.0 | 0.0 | 0.00 | 0.00 | 0.00 | 28 | 1001.7 |
| 20260510092932 | 59 | 115 | 0.0 | 0.0 | 0.00 | 0.00 | 0.00 | 28 | 1001.8 |
| 20260510091935 | 60 | 115 | 0.0 | 0.0 | 0.00 | 0.00 | 0.00 | 27 | 1001.6 |
| 20260510090914 | 61 | 115 | 1.0 | 7.0 | 0.00 | 0.00 | 0.00 | 26 | 1001.2 |
| 20260510085858 | 61 | 56 | 3.0 | 7.0 | 0.00 | 0.00 | 0.00 | 27 | 1001.0 |
| 20260510084913 | 61 | 56 | 0.0 | 2.0 | 0.00 | 0.00 | 0.00 | 27 | 1001.2 |
| 20260510083840 | 60 | 55 | 0.0 | 1.0 | 0.00 | 0.00 | 0.00 | 27 | 1001.2 |
| 20260510081745 | 60 | 57 | 0.0 | 0.0 | 0.00 | 0.00 | 0.00 | 28 | 1001.1 |
| 20260510074418 | 60 | 49 | 0.0 | 0.0 | 0.00 | 0.00 | 0.00 | 28 | 1001.1 |
| 20260510073353 | 60 | 49 | 0.0 | 0.0 | 0.00 | 0.00 | 0.00 | 27 | 1001.0 |
| 20260510072344 | 60 | 48 | 0.0 | 3.0 | 0.00 | 0.00 | 0.00 | 28 | 1001.1 |
| 20260510071356 | 59 | 35 | 0.0 | 0.0 | 0.00 | 0.00 | 0.00 | 28 | 1001.1 |
| 20260510070331 | 60 | 35 | 0.0 | 0.0 | 0.00 | 0.00 | 0.00 | 27 | 1001.0 |
| 20260510064152 | 60 | 48 | 0.0 | 0.0 | 0.00 | 0.00 | 0.00 | 27 | 1000.9 |
| 20260510063149 | 60 | 48 | 0.0 | 1.0 | 0.00 | 0.00 | 0.00 | 27 | 1001.0 |
| 20260510062138 | 61 | 314 | 0.0 | 0.0 | 0.00 | 0.00 | 0.00 | 26 | 1001.0 |
| 20260510061110 | 61 | 315 | 0.0 | 0.0 | 0.00 | 0.00 | 0.00 | 26 | 1000.8 |
| 20260510060110 | 62 | 320 | 0.0 | 0.0 | 0.00 | 0.00 | 0.00 | 25 | 1000.7 |
| 20260510055128 | 62 | 311 | 0.0 | 0.0 | 0.00 | 0.00 | 0.00 | 25 | 1000.8 |
| 20260510054148 | 61 | 58 | 0.0 | 3.0 | 0.00 | 0.00 | 0.00 | 25 | 1000.6 |
| 20260510053114 | 62 | 53 | 0.0 | 0.0 | 0.00 | 0.00 | 0.00 | 25 | 1000.7 |
| 20260510050959 | 63 | 278 | 0.0 | 2.0 | 0.00 | 0.00 | 0.00 | 23 | 1000.7 |
| 20260510050002 | 63 | 296 | 0.0 | 0.0 | 0.00 | 0.00 | 0.00 | 22 | 1000.8 |
| 20260510044929 | 64 | 327 | 0.0 | 3.0 | 0.00 | 0.00 | 0.00 | 21 | 1000.7 |
| 20260510043921 | 65 | 57 | 0.0 | 0.0 | 0.00 | 0.00 | 0.00 | 20 | 1000.7 |
| 20260510041751 | 64 | 314 | 0.0 | 5.0 | 0.00 | 0.00 | 0.00 | 20 | 1000.7 |
| 20260510040810 | 64 | 311 | 0.0 | 0.0 | 0.00 | 0.00 | 0.00 | 19 | 1000.5 |
| 20260510034639 | 65 | 312 | 0.0 | 0.0 | 0.00 | 0.00 | 0.00 | 18 | 1000.3 |
| 20260510033629 | 66 | 312 | 0.0 | 0.0 | 0.00 | 0.00 | 0.00 | 18 | 1000.2 |
| 20260510032648 | 67 | 309 | 0.0 | 6.0 | 0.00 | 0.00 | 0.00 | 17 | 1000.0 |
| 20260510031645 | 68 | 323 | 0.0 | 9.0 | 0.00 | 0.00 | 0.00 | 16 | 999.8 |
| 20260510030638 | 69 | 326 | 2.0 | 9.0 | 0.00 | 0.00 | 0.00 | 14 | 999.6 |
| 20260510025608 | 69 | 317 | 2.0 | 5.0 | 0.00 | 0.00 | 0.00 | 13 | 999.4 |
| 20260510024557 | 70 | 297 | 2.0 | 7.0 | 0.00 | 0.00 | 0.00 | 13 | 999.0 |
| 20260510023530 | 70 | 304 | 2.0 | 7.0 | 0.00 | 0.00 | 0.00 | 13 | 998.8 |
| 20260510022510 | 70 | 292 | 1.0 | 4.0 | 0.00 | 0.00 | 0.00 | 13 | 998.7 |
| 20260510021534 | 71 | 271 | 1.0 | 6.0 | 0.00 | 0.00 | 0.00 | 13 | 998.5 |
| 20260510020555 | 72 | 311 | 1.0 | 6.0 | 0.00 | 0.00 | 0.00 | 13 | 998.4 |
| 20260510015552 | 73 | 288 | 2.0 | 6.0 | 0.00 | 0.00 | 0.00 | 13 | 998.2 |
| 20260510014617 | 74 | 282 | 2.0 | 8.0 | 0.00 | 0.00 | 0.00 | 12 | 998.0 |
| 20260510013624 | 75 | 208 | 3.0 | 13.0 | 0.00 | 0.00 | 0.00 | 12 | 997.8 |
| 20260510011534 | 76 | 330 | 3.0 | 15.0 | 0.00 | 0.00 | 0.00 | 11 | 997.7 |
| 20260510010512 | 76 | 274 | 3.0 | 11.0 | 0.00 | 0.00 | 0.00 | 11 | 997.6 |
| 20260510005525 | 76 | 290 | 3.0 | 14.0 | 0.00 | 0.00 | 0.00 | 11 | 997.7 |
| 20260510004459 | 75 | 309 | 5.0 | 14.0 | 0.00 | 0.00 | 0.00 | 11 | 997.7 |
| 20260510003514 | 75 | 316 | 5.0 | 12.0 | 0.00 | 0.00 | 0.00 | 11 | 997.6 |
| 20260510002457 | 76 | 290 | 5.0 | 13.0 | 0.00 | 0.00 | 0.00 | 11 | 997.6 |
| 20260510001430 | 76 | 312 | 5.0 | 16.0 | 0.00 | 0.00 | 0.00 | 11 | 997.5 |
| 20260510000448 | 77 | 248 | 4.0 | 16.0 | 0.00 | 0.00 | 0.00 | 11 | 997.5 |
| 20260509235449 | 76 | 322 | 4.0 | 11.0 | 0.00 | 0.00 | 0.00 | 12 | 997.5 |
| 20260509234447 | 76 | 269 | 4.0 | 13.0 | 0.00 | 0.00 | 0.00 | 11 | 997.5 |
| 20260509233437 | 77 | 292 | 5.0 | 13.0 | 0.00 | 0.00 | 0.00 | 11 | 997.5 |
| 20260509231216 | 78 | 311 | 3.0 | 13.0 | 0.00 | 0.00 | 0.00 | 11 | 997.3 |
| 20260509230241 | 79 | 216 | 2.0 | 13.0 | 0.00 | 0.00 | 0.00 | 11 | 997.3 |
| 20260509225258 | 79 | 266 | 4.0 | 16.0 | 0.00 | 0.00 | 0.00 | 11 | 997.3 |
| 20260509222045 | 79 | 311 | 2.0 | 14.0 | 0.00 | 0.00 | 0.00 | 12 | 997.5 |
| 20260509214834 | 80 | 288 | 2.0 | 9.0 | 0.00 | 0.00 | 0.00 | 11 | 998.0 |
| 20260509213850 | 76 | 318 | 2.0 | 6.0 | 0.00 | 0.00 | 0.00 | 14 | 998.1 |
| 20260509212817 | 77 | 295 | 3.0 | 13.0 | 0.00 | 0.00 | 0.00 | 13 | 998.4 |
| 20260509211830 | 76 | 293 | 3.0 | 13.0 | 0.00 | 0.00 | 0.00 | 13 | 998.6 |
| 20260509210852 | 77 | 238 | 3.0 | 13.0 | 0.00 | 0.00 | 0.00 | 12 | 998.8 |
| 20260509205915 | 78 | 313 | 3.0 | 11.0 | 0.00 | 0.00 | 0.00 | 12 | 998.8 |
| 20260509204915 | 77 | 290 | 3.0 | 11.0 | 0.00 | 0.00 | 0.00 | 13 | 999.0 |